Time;durP1;ratioP1;P1;durP2;ratioP2;P2;SDS_P1;SDS_P2;PMS_P1;PMS_P2;Temp;Humidity;BMP_temperature;BMP_pressure;BME280_temperature;BME280_humidity;BME280_pressure;Samples;Min_cycle;Max_cycle;Signal;HPM_P1;HPM_P2
2021/05/22 00:02:24;;;;;;;2.53;0.60;;;;;;;9.20;70.18;99531.98;1701781;82;21096;-53
2021/05/22 00:04:50;;;;;;;1.10;0.57;;;;;;;9.22;70.04;99530.11;1701575;83;21128;-53
2021/05/22 00:07:17;;;;;;;2.50;0.60;;;;;;;9.21;70.06;99539.09;1698800;83;21652;-53
2021/05/22 00:09:47;;;;;;;2.80;0.50;;;;;;;9.18;70.11;99541.08;1700799;83;21156;-53
2021/05/22 00:12:13;;;;;;;1.13;0.57;;;;;;;9.16;70.06;99537.58;1702861;83;21105;-53
2021/05/22 00:14:40;;;;;;;0.80;0.50;;;;;;;9.12;70.21;99531.47;1700709;82;21137;-53
2021/05/22 00:17:08;;;;;;;3.80;0.90;;;;;;;9.08;70.25;99536.13;1698109;83;21118;-53
2021/05/22 00:19:36;;;;;;;0.73;0.50;;;;;;;9.06;70.41;99525.91;1701168;83;21016;-53
2021/05/22 00:22:04;;;;;;;0.97;0.50;;;;;;;9.07;70.49;99528.13;1699300;83;21181;-53
2021/05/22 00:24:30;;;;;;;0.60;0.40;;;;;;;9.08;70.60;99537.94;1667109;84;21114;-53
2021/05/22 00:26:58;;;;;;;0.70;0.50;;;;;;;9.09;70.57;99533.84;1662021;84;21182;-53
2021/05/22 00:29:25;;;;;;;3.80;0.60;;;;;;;9.13;70.60;99537.70;1660768;84;21248;-53
2021/05/22 00:31:51;;;;;;;1.97;0.50;;;;;;;9.15;70.64;99536.70;1664157;84;22369;-53
2021/05/22 00:34:17;;;;;;;3.40;0.60;;;;;;;9.16;70.62;99538.92;1664742;84;21550;-55
2021/05/22 00:36:44;;;;;;;1.30;0.80;;;;;;;9.17;70.50;99540.67;1676314;83;21820;-52
2021/05/22 00:39:11;;;;;;;2.17;0.60;;;;;;;9.16;70.43;99542.48;1726488;82;21526;-52
2021/05/22 00:41:37;;;;;;;4.33;0.80;;;;;;;9.13;70.39;99539.05;1720425;82;21585;-52
2021/05/22 00:44:04;;;;;;;1.60;0.70;;;;;;;9.09;70.46;99542.36;1722197;82;21456;-52
2021/05/22 00:46:31;;;;;;;1.87;0.60;;;;;;;9.05;70.46;99533.56;1718514;82;21100;-52
2021/05/22 00:48:58;;;;;;;1.57;0.60;;;;;;;9.02;70.56;99533.69;1721597;82;20890;-52
2021/05/22 00:51:24;;;;;;;1.60;0.60;;;;;;;9.01;70.62;99536.00;1724501;82;20989;-52
2021/05/22 00:53:51;;;;;;;3.83;0.60;;;;;;;9.03;70.59;99537.25;1721672;82;21159;-52
2021/05/22 00:56:17;;;;;;;1.20;0.50;;;;;;;9.01;70.66;99533.32;1722046;82;23169;-52
2021/05/22 00:58:44;;;;;;;1.07;0.60;;;;;;;9.01;70.68;99530.64;1721864;82;21359;-52
2021/05/22 01:01:10;;;;;;;4.07;0.60;;;;;;;9.03;70.72;99534.09;1724218;82;21534;-52
2021/05/22 01:03:43;;;;;;;1.20;0.57;;;;;;;9.03;70.70;99536.78;1722641;82;21722;-52
2021/05/22 01:06:27;;;;;;;1.53;0.50;;;;;;;9.04;70.75;99529.60;1726291;82;22187;-52
2021/05/22 01:09:02;;;;;;;3.83;0.73;;;;;;;9.02;70.79;99528.33;1722889;82;21106;-52
2021/05/22 01:11:37;;;;;;;4.75;0.80;;;;;;;9.03;70.66;99533.22;1719677;82;21455;-52
2021/05/22 01:14:14;;;;;;;2.83;0.73;;;;;;;9.00;70.60;99531.57;1722249;82;20984;-52
2021/05/22 01:16:43;;;;;;;1.57;0.70;;;;;;;8.96;70.67;99532.64;1721769;82;21542;-53
2021/05/22 01:19:16;;;;;;;7.73;1.07;;;;;;;8.92;70.75;99531.05;1722524;82;21760;-52
2021/05/22 01:21:43;;;;;;;1.85;0.60;;;;;;;8.89;70.84;99539.23;1718511;82;23595;-53
2021/05/22 01:24:12;;;;;;;5.67;0.60;;;;;;;8.88;70.70;99542.84;1719904;82;21140;-52
2021/05/22 01:26:38;;;;;;;4.53;0.60;;;;;;;8.84;70.69;99545.75;1702536;82;21107;-53
2021/05/22 01:29:07;;;;;;;3.33;0.50;;;;;;;8.80;70.86;99543.66;1723192;82;21120;-53
2021/05/22 01:31:34;;;;;;;0.80;0.50;;;;;;;8.80;71.02;99545.00;1722830;82;21086;-53
2021/05/22 01:34:00;;;;;;;1.80;0.60;;;;;;;8.80;71.08;99549.03;1715622;82;21802;-53
2021/05/22 01:36:26;;;;;;;2.47;0.57;;;;;;;8.80;71.07;99550.37;1718819;82;21187;-53
2021/05/22 01:38:53;;;;;;;1.93;0.60;;;;;;;8.80;71.09;99545.47;1721178;82;21151;-53
2021/05/22 01:41:20;;;;;;;1.87;0.70;;;;;;;8.79;71.15;99549.09;1723524;82;21407;-54
2021/05/22 01:43:49;;;;;;;2.47;0.67;;;;;;;8.80;71.20;99558.42;1723406;82;21170;-53
2021/05/22 01:46:16;;;;;;;2.63;0.53;;;;;;;8.78;71.17;99557.61;1719903;82;21504;-52
2021/05/22 01:48:43;;;;;;;1.90;0.60;;;;;;;8.77;71.19;99555.86;1723536;82;21405;-53
2021/05/22 01:51:15;;;;;;;1.47;0.53;;;;;;;8.75;71.21;99553.73;1719303;82;21053;-54
2021/05/22 01:53:59;;;;;;;7.07;0.60;;;;;;;8.74;71.26;99560.05;1670968;84;21753;-52
2021/05/22 01:56:25;;;;;;;1.43;0.60;;;;;;;8.73;71.25;99551.59;1704135;82;21147;-52
2021/05/22 01:58:53;;;;;;;2.20;0.60;;;;;;;8.74;71.34;99556.02;1722061;82;21124;-49
2021/05/22 02:01:20;;;;;;;2.37;0.50;;;;;;;8.75;71.41;99563.59;1720330;82;21163;-52
2021/05/22 02:03:48;;;;;;;0.70;0.60;;;;;;;8.76;71.39;99562.20;1720887;82;21786;-49
2021/05/22 02:06:21;;;;;;;1.13;0.50;;;;;;;8.77;71.46;99556.33;1722891;82;21194;-49
2021/05/22 02:08:49;;;;;;;2.72;0.60;;;;;;;8.79;71.53;99559.83;1721896;82;21371;-52
2021/05/22 02:11:16;;;;;;;0.83;0.60;;;;;;;8.79;71.45;99557.14;1721915;82;21736;-51
2021/05/22 02:13:42;;;;;;;1.73;0.60;;;;;;;8.79;71.40;99556.67;1724119;82;21511;-51
2021/05/22 02:16:08;;;;;;;4.90;0.60;;;;;;;8.78;71.41;99560.30;1722405;81;21661;-52
2021/05/22 02:18:35;;;;;;;1.30;0.60;;;;;;;8.77;71.42;99567.94;1721483;82;21790;-52
2021/05/22 02:21:03;;;;;;;1.57;0.53;;;;;;;8.75;71.41;99563.59;1723090;82;21112;-52
2021/05/22 02:23:30;;;;;;;1.20;0.50;;;;;;;8.73;71.49;99561.84;1721786;82;21103;-49
2021/05/22 02:25:57;;;;;;;3.80;0.60;;;;;;;8.75;71.53;99564.94;1683011;83;21704;-50
2021/05/22 02:28:31;;;;;;;1.97;0.50;;;;;;;8.76;71.67;99568.03;1723264;82;20937;-51
2021/05/22 02:30:57;;;;;;;1.07;0.60;;;;;;;8.77;71.70;99565.25;1724955;82;22173;-49
2021/05/22 02:33:23;;;;;;;0.90;0.60;;;;;;;8.79;71.72;99566.53;1722745;82;20951;-51
2021/05/22 02:35:51;;;;;;;1.30;0.60;;;;;;;8.81;71.82;99570.91;1724122;82;21112;-50
2021/05/22 02:38:22;;;;;;;6.60;0.70;;;;;;;8.83;71.87;99569.03;1728225;82;20972;-50
2021/05/22 02:40:50;;;;;;;2.40;0.60;;;;;;;8.87;71.87;99570.62;1705612;82;21081;-49
2021/05/22 02:43:16;;;;;;;1.37;0.60;;;;;;;8.89;71.93;99572.78;1729036;82;20989;-52
2021/05/22 02:45:44;;;;;;;0.93;0.60;;;;;;;8.91;71.97;99577.62;1730507;82;21012;-49
2021/05/22 02:48:14;;;;;;;2.63;0.80;;;;;;;8.91;72.00;99578.96;1731891;80;21443;-52
2021/05/22 02:50:41;;;;;;;2.47;0.60;;;;;;;8.92;72.05;99579.37;1733182;82;21449;-52
2021/05/22 02:53:09;;;;;;;0.90;0.50;;;;;;;8.93;72.12;99577.05;1730011;82;21309;-52
2021/05/22 02:55:35;;;;;;;2.30;0.50;;;;;;;8.98;72.28;99583.58;1731582;82;20988;-50
2021/05/22 02:58:02;;;;;;;0.87;0.60;;;;;;;9.03;72.38;99589.60;1731902;82;20932;-50
2021/05/22 03:00:28;;;;;;;2.60;0.50;;;;;;;9.06;72.46;99583.64;1729387;82;21467;-49
2021/05/22 03:02:54;;;;;;;2.30;0.57;;;;;;;9.11;72.69;99595.03;1731376;82;21454;-50
2021/05/22 03:05:21;;;;;;;1.07;0.50;;;;;;;9.15;72.88;99590.41;1731310;82;21623;-53
2021/05/22 03:07:47;;;;;;;1.33;0.53;;;;;;;9.21;73.07;99597.31;1730345;82;20984;-50
2021/05/22 03:10:13;;;;;;;0.90;0.60;;;;;;;9.25;73.19;99601.15;1730741;82;20944;-52
2021/05/22 03:12:40;;;;;;;1.33;0.63;;;;;;;9.31;73.32;99594.14;1702357;82;21102;-50
2021/05/22 03:15:07;;;;;;;1.20;0.70;;;;;;;9.36;73.44;99589.42;1728040;82;21515;-50
2021/05/22 03:17:33;;;;;;;6.50;0.60;;;;;;;9.42;73.49;99597.70;1734372;82;20937;-50
2021/05/22 03:19:59;;;;;;;0.80;0.60;;;;;;;9.50;73.57;99602.24;1729107;82;21075;-51
2021/05/22 03:22:26;;;;;;;2.30;0.60;;;;;;;9.59;73.73;99599.13;1722961;82;21207;-52
2021/05/22 03:28:55;;;;;;;1.00;0.60;;;;;;;9.88;73.94;99595.05;1790887;78;22670;-52
2021/05/22 03:31:22;;;;;;;1.17;0.60;;;;;;;9.95;74.03;99602.38;1774986;79;21577;-51
2021/05/22 03:33:48;;;;;;;0.87;0.60;;;;;;;10.05;74.01;99600.48;1777198;78;21078;-51
2021/05/22 03:36:14;;;;;;;1.10;0.80;;;;;;;10.15;73.98;99603.13;1776509;79;20992;-50
2021/05/22 03:38:41;;;;;;;2.17;0.60;;;;;;;10.27;73.82;99601.70;1774060;79;21153;-50
2021/05/22 03:41:08;;;;;;;2.73;0.60;;;;;;;10.37;73.66;99603.47;1773242;79;21007;-52
2021/05/22 03:43:34;;;;;;;0.97;0.70;;;;;;;10.50;73.19;99603.23;1739066;80;21128;-52
2021/05/22 03:46:02;;;;;;;1.53;0.90;;;;;;;10.65;72.85;99603.80;1705449;82;21099;-51
2021/05/22 03:48:29;;;;;;;2.37;0.70;;;;;;;10.82;72.42;99605.63;1664288;84;21039;-53
2021/05/22 03:50:55;;;;;;;0.80;0.60;;;;;;;10.97;72.07;99610.25;1665200;84;22252;-50
2021/05/22 03:53:23;;;;;;;3.77;0.90;;;;;;;11.12;71.70;99609.91;1704408;82;21136;-52
2021/05/22 03:55:49;;;;;;;0.90;0.70;;;;;;;11.27;71.08;99612.66;1687059;83;21147;-51
2021/05/22 03:58:15;;;;;;;2.60;0.60;;;;;;;11.43;70.52;99607.31;1685379;83;21750;-51
2021/05/22 04:00:42;;;;;;;3.30;0.70;;;;;;;11.58;70.02;99616.39;1686253;83;21875;-51
2021/05/22 04:03:08;;;;;;;1.15;0.60;;;;;;;11.73;69.33;99625.02;1684417;83;21124;-49
2021/05/22 04:05:34;;;;;;;0.80;0.60;;;;;;;11.90;68.79;99617.38;1682168;83;21092;-49
2021/05/22 04:08:03;;;;;;;2.98;0.60;;;;;;;12.04;68.24;99623.73;1685198;83;21167;-48
2021/05/22 04:10:29;;;;;;;1.30;0.62;;;;;;;12.18;67.79;99622.06;1688097;83;21522;-50
2021/05/22 04:12:56;;;;;;;0.70;0.60;;;;;;;12.30;67.33;99629.47;1685548;83;21580;-51
2021/05/22 04:15:22;;;;;;;2.60;0.80;;;;;;;12.49;66.76;99630.16;1686357;83;21470;-50
2021/05/22 04:17:49;;;;;;;2.20;0.62;;;;;;;12.63;66.39;99626.17;1689229;83;21588;-50
2021/05/22 04:20:15;;;;;;;1.27;0.70;;;;;;;12.76;65.95;99631.22;1686039;83;21017;-49
2021/05/22 04:22:42;;;;;;;0.90;0.55;;;;;;;12.92;65.56;99630.34;1655982;83;21100;-53
2021/05/22 04:25:11;;;;;;;1.12;0.57;;;;;;;13.09;65.02;99630.20;1683879;83;21155;-49
2021/05/22 04:27:37;;;;;;;0.65;0.57;;;;;;;13.23;64.51;99626.20;1676719;83;20961;-49
2021/05/22 04:30:05;;;;;;;1.77;0.50;;;;;;;13.37;63.98;99622.16;1649386;85;21083;-54
2021/05/22 04:32:32;;;;;;;5.70;0.60;;;;;;;13.53;62.96;99618.89;1652143;85;21025;-50
2021/05/22 04:34:58;;;;;;;2.00;0.50;;;;;;;13.72;62.27;99617.73;1652763;85;21393;-51
2021/05/22 04:37:24;;;;;;;1.42;0.50;;;;;;;13.88;61.72;99617.14;1642300;85;21727;-49
2021/05/22 04:39:51;;;;;;;0.85;0.50;;;;;;;14.01;61.38;99620.34;1670152;84;21553;-51
2021/05/22 04:42:18;;;;;;;0.50;0.40;;;;;;;14.16;60.51;99617.12;1662569;84;21228;-50
2021/05/22 04:44:44;;;;;;;2.30;0.50;;;;;;;14.29;60.32;99619.39;1668526;84;21111;-50
2021/05/22 04:47:10;;;;;;;4.25;0.62;;;;;;;14.42;59.56;99615.93;1633291;86;21186;-51
2021/05/22 04:49:37;;;;;;;0.60;0.50;;;;;;;14.54;58.92;99610.58;1673675;84;21149;-51
2021/05/22 04:52:04;;;;;;;1.07;0.50;;;;;;;14.67;58.45;99620.09;1700266;82;21098;-51
2021/05/22 04:54:31;;;;;;;0.90;0.40;;;;;;;14.79;58.00;99622.00;1702894;82;21051;-52
2021/05/22 04:56:57;;;;;;;2.80;0.40;;;;;;;14.91;57.49;99626.56;1668793;84;21148;-50
2021/05/22 04:59:24;;;;;;;1.90;0.40;;;;;;;15.02;57.05;99621.77;1706048;82;21161;-52
2021/05/22 05:01:50;;;;;;;0.37;0.23;;;;;;;15.14;56.62;99629.92;1698809;82;21139;-51
2021/05/22 05:04:16;;;;;;;0.82;0.40;;;;;;;15.25;55.89;99619.70;1702776;82;21121;-52
2021/05/22 05:06:43;;;;;;;0.65;0.40;;;;;;;15.37;55.73;99624.28;1702461;82;21033;-52
2021/05/22 05:09:10;;;;;;;0.80;0.40;;;;;;;15.48;55.52;99617.59;1701238;82;21664;-52
2021/05/22 05:11:36;;;;;;;2.58;0.40;;;;;;;15.62;54.96;99624.80;1703978;82;21095;-51
2021/05/22 05:14:03;;;;;;;0.30;0.28;;;;;;;15.74;54.17;99624.41;1659959;84;21069;-54
2021/05/22 05:16:29;;;;;;;4.35;0.30;;;;;;;15.83;53.68;99624.62;1701597;82;21628;-52
2021/05/22 05:18:56;;;;;;;2.65;0.30;;;;;;;15.93;53.40;99625.31;1701586;82;21177;-52
2021/05/22 05:21:23;;;;;;;0.53;0.30;;;;;;;16.04;53.56;99619.98;1699031;82;21574;-50
2021/05/22 05:23:49;;;;;;;1.35;0.30;;;;;;;16.12;53.55;99617.58;1705405;82;21051;-54
2021/05/22 05:26:16;;;;;;;0.70;0.30;;;;;;;16.21;52.90;99619.63;1703092;82;21638;-51
2021/05/22 05:28:42;;;;;;;0.85;0.30;;;;;;;16.28;52.41;99616.34;1719039;81;21103;-52
2021/05/22 05:31:08;;;;;;;0.90;0.30;;;;;;;16.38;52.25;99616.53;1689885;82;21080;-53
2021/05/22 05:33:35;;;;;;;0.62;0.30;;;;;;;16.47;52.14;99609.55;1720204;81;21340;-51
2021/05/22 05:36:02;;;;;;;0.53;0.30;;;;;;;16.58;52.44;99612.34;1727951;81;21162;-50
2021/05/22 05:38:28;;;;;;;0.95;0.40;;;;;;;16.78;52.24;99619.00;1726401;81;21108;-52
2021/05/22 05:40:57;;;;;;;1.72;0.30;;;;;;;16.78;52.24;99619.00;1726733;81;21017;-51
2021/05/22 05:43:23;;;;;;;0.98;0.30;;;;;;;16.89;52.20;99623.14;1728096;81;21108;-53
2021/05/22 05:45:51;;;;;;;1.37;0.30;;;;;;;16.99;51.60;99622.33;1724581;81;21130;-54
2021/05/22 05:48:17;;;;;;;0.37;0.30;;;;;;;17.09;51.39;99624.34;1723266;81;21507;-52
2021/05/22 05:50:44;;;;;;;3.12;0.82;;;;;;;17.18;51.33;99636.71;1725485;81;21754;-54
2021/05/22 05:53:10;;;;;;;0.85;0.20;;;;;;;17.26;50.70;99634.30;1725321;80;21099;-52
2021/05/22 05:55:36;;;;;;;0.30;0.20;;;;;;;17.35;50.41;99638.99;1725951;81;21128;-52
2021/05/22 05:58:03;;;;;;;0.40;0.30;;;;;;;17.44;49.98;99646.09;1721183;80;21072;-51
2021/05/22 06:00:30;;;;;;;0.35;0.28;;;;;;;17.51;49.63;99640.55;1723989;81;21172;-51
2021/05/22 06:02:57;;;;;;;2.92;0.30;;;;;;;17.57;49.79;99646.85;1724793;81;21109;-52
2021/05/22 06:05:23;;;;;;;1.27;0.30;;;;;;;17.62;49.55;99646.89;1725668;81;21123;-53
2021/05/22 06:07:50;;;;;;;2.33;0.30;;;;;;;17.67;49.78;99652.86;1725474;81;21657;-51
2021/05/22 06:10:17;;;;;;;0.37;0.30;;;;;;;17.73;49.19;99652.36;1724587;81;21112;-53
2021/05/22 06:12:45;;;;;;;2.15;0.28;;;;;;;17.76;48.69;99646.69;1727182;81;21166;-52
2021/05/22 06:17:42;;;;;;;0.90;0.30;;;;;;;17.87;48.52;99658.05;1668690;84;20985;-53
2021/05/22 06:20:09;;;;;;;0.93;0.30;;;;;;;17.92;48.36;99665.38;1726727;81;20972;-50
2021/05/22 06:22:36;;;;;;;0.40;0.30;;;;;;;18.00;48.81;99670.22;1723568;81;21048;-53
2021/05/22 06:25:04;;;;;;;0.30;0.30;;;;;;;18.08;48.65;99668.61;1722198;81;21158;-51
2021/05/22 06:27:31;;;;;;;0.35;0.20;;;;;;;18.17;48.21;99677.03;1727176;81;20937;-50
2021/05/22 06:29:57;;;;;;;4.60;0.30;;;;;;;18.25;48.38;99670.47;1724784;81;20961;-48
2021/05/22 06:32:24;;;;;;;5.53;0.50;;;;;;;18.34;47.92;99679.26;1726181;81;20997;-49
2021/05/22 06:34:52;;;;;;;0.82;0.50;;;;;;;18.43;47.76;99675.29;1690753;82;20958;-52
2021/05/22 06:37:19;;;;;;;1.50;0.20;;;;;;;18.54;47.31;99681.23;1691446;82;21686;-50
2021/05/22 06:39:46;;;;;;;1.42;0.10;;;;;;;18.64;45.86;99673.17;1725874;81;21076;-50
2021/05/22 06:42:12;;;;;;;0.37;0.20;;;;;;;18.75;45.81;99677.25;1716202;81;21540;-50
2021/05/22 06:44:43;;;;;;;0.15;0.10;;;;;;;18.84;44.26;99675.12;1725444;81;21962;-50
2021/05/22 06:47:06;;;;;;;11.78;0.40;;;;;;;18.92;43.91;99675.84;1722550;81;21644;-51
2021/05/22 06:49:33;;;;;;;1.05;0.20;;;;;;;19.00;43.76;99674.69;1727119;81;21138;-50
2021/05/22 06:52:01;;;;;;;0.23;0.20;;;;;;;19.07;43.64;99675.41;1728636;81;20969;-52
2021/05/22 06:54:31;;;;;;;0.15;0.10;;;;;;;19.13;43.54;99681.73;1727954;81;20922;-51
2021/05/22 06:56:57;;;;;;;0.40;0.15;;;;;;;19.21;44.20;99675.63;1726063;81;21056;-51
2021/05/22 06:59:23;;;;;;;0.85;0.20;;;;;;;19.30;43.54;99679.43;1723814;81;21171;-53
2021/05/22 07:01:51;;;;;;;11.80;0.50;;;;;;;19.37;43.59;99684.23;1722609;81;21089;-52
2021/05/22 07:04:17;;;;;;;2.65;0.30;;;;;;;19.47;43.87;99677.03;1723311;81;21084;-50
2021/05/22 07:06:45;;;;;;;0.57;0.17;;;;;;;19.56;43.20;99672.64;1665430;84;22342;-50
2021/05/22 07:09:11;;;;;;;0.30;0.20;;;;;;;19.64;42.68;99669.61;1668375;84;21689;-51
2021/05/22 07:11:41;;;;;;;0.60;0.25;;;;;;;19.70;42.12;99676.39;1668162;84;21152;-52
2021/05/22 07:14:08;;;;;;;6.22;0.20;;;;;;;19.77;42.85;99673.48;1671511;84;21716;-51
2021/05/22 07:16:34;;;;;;;0.28;0.20;;;;;;;19.84;41.94;99664.25;1661192;84;21530;-52
2021/05/22 07:19:01;;;;;;;0.53;0.20;;;;;;;19.91;41.94;99670.89;1667177;83;21108;-52
2021/05/22 07:21:28;;;;;;;22.65;0.70;;;;;;;19.95;41.91;99660.08;1666495;84;21555;-51
2021/05/22 07:23:54;;;;;;;6.65;0.30;;;;;;;19.98;41.74;99662.05;1670914;84;21486;-52
2021/05/22 07:26:21;;;;;;;0.50;0.20;;;;;;;20.03;41.36;99656.16;1669245;84;21093;-52
2021/05/22 07:28:47;;;;;;;0.25;0.15;;;;;;;20.05;41.34;99655.53;1722427;81;21177;-51
2021/05/22 07:31:14;;;;;;;0.25;0.20;;;;;;;20.07;40.70;99660.88;1730364;80;21013;-53
2021/05/22 07:33:42;;;;;;;0.93;0.20;;;;;;;20.10;41.32;99660.08;1732201;81;21123;-53
2021/05/22 07:36:10;;;;;;;0.98;0.25;;;;;;;20.14;40.71;99663.42;1732592;81;20956;-54
2021/05/22 07:38:39;;;;;;;0.30;0.20;;;;;;;20.17;40.35;99658.52;1727862;81;21330;-54
2021/05/22 07:41:06;;;;;;;2.83;0.20;;;;;;;20.20;40.81;99652.80;1722484;81;21686;-51
2021/05/22 07:43:32;;;;;;;0.47;0.20;;;;;;;20.26;41.33;99660.44;1726538;81;21143;-54
2021/05/22 07:45:59;;;;;;;2.67;0.20;;;;;;;20.34;41.79;99659.78;1727082;81;21102;-54
2021/05/22 07:48:26;;;;;;;0.25;0.20;;;;;;;20.43;41.73;99650.75;1728703;81;21091;-53
2021/05/22 07:50:53;;;;;;;7.17;0.30;;;;;;;20.52;41.97;99655.89;1725016;81;21342;-53
2021/05/22 07:53:20;;;;;;;1.67;0.20;;;;;;;20.59;40.96;99650.22;1726566;80;21391;-51
2021/05/22 07:55:47;;;;;;;0.40;0.20;;;;;;;20.63;39.99;99648.95;1725235;81;21008;-54
2021/05/22 07:58:16;;;;;;;0.68;0.20;;;;;;;20.67;39.79;99658.62;1730159;81;21107;-53
2021/05/22 08:00:45;;;;;;;0.70;0.20;;;;;;;20.71;40.25;99646.38;1727261;81;22323;-52
2021/05/22 08:03:11;;;;;;;1.50;0.30;;;;;;;20.76;39.64;99639.46;1724972;81;21218;-53
2021/05/22 08:05:38;;;;;;;23.10;1.12;;;;;;;20.83;39.77;99634.31;1729052;81;21187;-55
2021/05/22 08:08:05;;;;;;;4.72;0.30;;;;;;;20.91;40.01;99637.20;1728621;81;21069;-52
2021/05/22 08:10:33;;;;;;;1.95;0.10;;;;;;;20.97;39.43;99636.63;1722084;81;21140;-51
2021/05/22 08:12:59;;;;;;;0.85;0.20;;;;;;;21.02;39.14;99635.68;1728300;81;21746;-51
2021/05/22 08:15:25;;;;;;;1.42;0.30;;;;;;;21.07;39.07;99642.11;1724644;81;21123;-51
2021/05/22 08:17:52;;;;;;;0.37;0.20;;;;;;;21.11;39.28;99630.72;1725392;81;21077;-52
2021/05/22 08:20:18;;;;;;;19.40;0.80;;;;;;;21.18;38.90;99623.36;1725572;81;21520;-52
2021/05/22 08:22:45;;;;;;;0.50;0.20;;;;;;;21.24;39.01;99626.87;1726768;81;21155;-51
2021/05/22 08:25:12;;;;;;;2.15;0.20;;;;;;;21.29;37.96;99634.14;1724532;81;21331;-53
2021/05/22 08:27:41;;;;;;;0.40;0.20;;;;;;;21.34;38.34;99637.33;1724051;81;21112;-51
2021/05/22 08:30:09;;;;;;;1.20;0.17;;;;;;;21.35;37.85;99632.21;1724802;81;21515;-53
2021/05/22 08:32:36;;;;;;;0.53;0.20;;;;;;;21.34;37.71;99624.50;1728345;81;21048;-52
2021/05/22 08:35:04;;;;;;;1.47;0.20;;;;;;;21.36;38.38;99627.06;1690366;82;21172;-54
2021/05/22 08:37:31;;;;;;;0.70;0.10;;;;;;;21.38;38.97;99627.80;1730359;81;20937;-54
2021/05/22 08:41:57;;;;;;;1.10;0.20;;;;;;;21.47;37.71;99620.94;1740785;78;29171;-53
2021/05/22 08:44:23;;;;;;;0.78;0.15;;;;;;;21.46;36.92;99616.97;1699054;82;21146;-51
2021/05/22 08:46:51;;;;;;;0.90;0.20;;;;;;;21.51;36.99;99611.44;1699481;82;21305;-51
2021/05/22 08:49:18;;;;;;;0.20;0.20;;;;;;;21.55;37.13;99607.02;1697662;82;21537;-53
2021/05/22 08:51:44;;;;;;;0.62;0.10;;;;;;;21.56;36.77;99598.66;1698162;82;21115;-50
2021/05/22 08:54:11;;;;;;;0.33;0.13;;;;;;;21.54;37.07;99603.41;1709625;82;21091;-51
2021/05/22 08:56:37;;;;;;;1.77;0.20;;;;;;;21.52;36.90;99599.98;1699544;82;21089;-53
2021/05/22 08:59:04;;;;;;;2.35;0.20;;;;;;;21.53;36.51;99598.94;1699930;82;22137;-56
2021/05/22 09:01:31;;;;;;;0.45;0.10;;;;;;;21.56;35.98;99602.77;1703436;82;22024;-53
2021/05/22 09:03:58;;;;;;;6.33;0.42;;;;;;;21.58;35.81;99600.75;1698188;82;21067;-52
2021/05/22 09:06:24;;;;;;;2.25;0.20;;;;;;;21.60;36.50;99605.58;1702349;82;21332;-56
2021/05/22 09:09:03;;;;;;;0.20;0.20;;;;;;;21.63;36.17;99602.53;1697273;82;21083;-53
2021/05/22 09:11:49;;;;;;;0.57;0.13;;;;;;;21.67;36.27;99601.23;1705127;82;21073;-54
2021/05/22 09:14:44;;;;;;;0.75;0.25;;;;;;;21.70;36.23;99601.42;1704820;82;21520;-54
2021/05/22 09:17:13;;;;;;;0.50;0.20;;;;;;;21.73;34.70;99594.30;1702313;82;21525;-54
2021/05/22 09:19:40;;;;;;;0.65;0.20;;;;;;;21.78;35.30;99588.71;1699328;82;21623;-53
2021/05/22 09:22:23;;;;;;;0.75;0.20;;;;;;;21.83;36.21;99589.66;1701193;82;21464;-53
2021/05/22 09:25:00;;;;;;;2.80;0.20;;;;;;;21.89;36.00;99586.30;1704500;82;21095;-53
2021/05/22 09:27:34;;;;;;;4.00;0.20;;;;;;;21.93;35.24;99584.14;1705414;82;21151;-53
2021/05/22 09:30:06;;;;;;;1.27;0.20;;;;;;;21.95;35.64;99588.44;1699808;82;20955;-54
2021/05/22 09:32:32;;;;;;;0.60;0.20;;;;;;;22.01;34.08;99582.92;1704885;82;20980;-52
2021/05/22 09:34:59;;;;;;;0.30;0.20;;;;;;;21.99;36.00;99595.39;1701281;82;21023;-53
2021/05/22 09:37:25;;;;;;;3.33;0.15;;;;;;;22.00;34.17;99583.92;1698450;82;21693;-53
2021/05/22 09:39:53;;;;;;;0.35;0.20;;;;;;;22.00;34.61;99582.05;1699483;82;21015;-49
2021/05/22 09:42:27;;;;;;;0.55;0.13;;;;;;;22.04;35.40;99577.98;1691544;82;21087;-51
2021/05/22 09:44:55;;;;;;;1.47;0.35;;;;;;;22.11;35.82;99585.12;1682896;83;21093;-55
2021/05/22 09:47:21;;;;;;;0.75;0.20;;;;;;;22.17;35.27;99585.37;1683060;83;21097;-55
2021/05/22 09:49:50;;;;;;;1.20;0.10;;;;;;;22.23;35.36;99583.88;1682580;83;21711;-55
2021/05/22 09:52:16;;;;;;;0.55;0.20;;;;;;;22.24;35.67;99571.40;1680706;83;20986;-52
2021/05/22 09:54:56;;;;;;;0.40;0.20;;;;;;;22.26;35.77;99572.63;1678308;83;21074;-53
2021/05/22 09:57:39;;;;;;;0.60;0.20;;;;;;;22.30;36.00;99572.66;1678313;83;21121;-52
2021/05/22 10:00:15;;;;;;;0.53;0.10;;;;;;;22.34;35.53;99573.23;1682662;83;21105;-53
2021/05/22 10:02:51;;;;;;;2.17;0.10;;;;;;;22.37;35.36;99562.80;1682021;83;21528;-55
2021/05/22 10:05:29;;;;;;;0.65;0.20;;;;;;;22.41;35.56;99558.75;1678634;83;21611;-51
2021/05/22 10:07:57;;;;;;;15.83;0.57;;;;;;;22.46;35.59;99550.91;1680113;83;21121;-52
2021/05/22 10:10:41;;;;;;;1.52;0.37;;;;;;;22.50;36.55;99548.73;1681478;83;21745;-56
2021/05/22 10:13:09;;;;;;;0.10;0.10;;;;;;;22.56;36.45;99549.48;1681532;83;21342;-52
2021/05/22 10:15:36;;;;;;;0.62;0.20;;;;;;;22.60;35.88;99545.42;1682521;83;21055;-53
2021/05/22 10:18:03;;;;;;;4.92;0.40;;;;;;;22.62;36.08;99540.65;1681373;83;21571;-55
2021/05/22 10:20:29;;;;;;;2.62;0.20;;;;;;;22.64;35.70;99535.34;1661681;83;21121;-53
2021/05/22 10:22:56;;;;;;;0.35;0.10;;;;;;;22.65;35.78;99524.72;1681874;83;21794;-53
2021/05/22 10:25:22;;;;;;;1.37;0.15;;;;;;;22.70;35.98;99522.03;1684735;83;21125;-54
2021/05/22 10:27:49;;;;;;;0.88;0.20;;;;;;;22.74;35.75;99518.84;1682849;83;21330;-50
2021/05/22 10:30:17;;;;;;;0.47;0.20;;;;;;;22.73;34.99;99521.70;1679708;83;21143;-53
2021/05/22 10:32:43;;;;;;;2.47;0.20;;;;;;;22.72;34.53;99508.48;1682935;83;21173;-53
2021/05/22 10:35:17;;;;;;;1.47;0.47;;;;;;;22.70;34.60;99511.06;1684433;83;20995;-52
2021/05/22 10:37:45;;;;;;;0.20;0.20;;;;;;;22.69;35.29;99501.97;1683463;83;21211;-52
2021/05/22 10:40:18;;;;;;;0.82;0.30;;;;;;;22.73;35.56;99514.33;1683728;83;21151;-56
2021/05/22 10:42:52;;;;;;;0.30;0.20;;;;;;;22.77;34.30;99506.70;1635695;85;22308;-55
2021/05/22 10:45:37;;;;;;;0.25;0.20;;;;;;;22.80;34.80;99499.50;1637499;85;20959;-55
2021/05/22 10:48:07;;;;;;;4.00;0.25;;;;;;;22.83;33.80;99501.44;1604139;87;21130;-54
2021/05/22 10:50:48;;;;;;;0.30;0.20;;;;;;;22.85;34.11;99506.27;1629772;86;21715;-54
2021/05/22 10:53:22;;;;;;;0.60;0.30;;;;;;;22.86;34.10;99504.38;1629503;86;21135;-54
2021/05/22 10:56:12;;;;;;;1.40;0.30;;;;;;;22.85;33.18;99498.53;1626954;86;21167;-54
2021/05/22 10:58:46;;;;;;;3.37;0.50;;;;;;;22.82;32.86;99490.09;1632487;86;20996;-55
2021/05/22 11:01:30;;;;;;;0.23;0.20;;;;;;;22.81;33.63;99491.12;1600386;86;21137;-52
2021/05/22 11:06:50;;;;;;;0.40;0.15;;;;;;;22.87;32.76;99483.64;1626836;86;22060;-53
2021/05/22 11:09:36;;;;;;;1.10;0.10;;;;;;;22.89;32.22;99481.58;1627192;86;21138;-53
2021/05/22 11:12:15;;;;;;;0.20;0.20;;;;;;;22.88;32.26;99468.88;1627601;86;21694;-54
2021/05/22 11:14:54;;;;;;;0.40;0.20;;;;;;;22.86;32.93;99475.56;1625299;86;21151;-51
2021/05/22 11:17:27;;;;;;;0.37;0.20;;;;;;;22.90;32.75;99471.47;1635172;86;21023;-54
2021/05/22 11:20:04;;;;;;;0.80;0.20;;;;;;;22.92;32.24;99469.44;1630356;86;21351;-55
2021/05/22 11:22:35;;;;;;;0.10;0.10;;;;;;;22.92;32.53;99466.18;1631441;86;21031;-54
2021/05/22 11:25:09;;;;;;;0.23;0.20;;;;;;;22.91;32.38;99476.80;1628288;86;20944;-54
2021/05/22 11:27:52;;;;;;;1.82;0.20;;;;;;;22.88;32.24;99466.67;1631903;86;21518;-52
2021/05/22 11:30:36;;;;;;;0.62;0.20;;;;;;;22.85;33.08;99472.47;1629981;86;20983;-53
2021/05/22 11:33:09;;;;;;;0.30;0.20;;;;;;;22.82;33.18;99466.77;1629643;86;21075;-55
2021/05/22 11:35:43;;;;;;;0.40;0.20;;;;;;;22.80;32.83;99461.09;1631659;86;21775;-52
2021/05/22 11:38:19;;;;;;;0.90;0.20;;;;;;;22.75;33.46;99460.20;1630097;86;20921;-51
2021/05/22 11:40:51;;;;;;;0.72;0.20;;;;;;;22.71;33.42;99466.15;1632020;86;21024;-54
2021/05/22 11:43:23;;;;;;;6.47;0.30;;;;;;;22.71;33.02;99470.27;1628550;86;20969;-52
2021/05/22 11:45:53;;;;;;;1.95;0.20;;;;;;;22.69;33.38;99470.92;1666254;84;21937;-55
2021/05/22 11:48:37;;;;;;;2.75;0.30;;;;;;;22.67;33.30;99471.58;1676108;83;20987;-54
2021/05/22 11:51:14;;;;;;;2.62;0.20;;;;;;;22.67;33.04;99471.58;1673772;83;20963;-52
2021/05/22 11:53:42;;;;;;;1.52;0.20;;;;;;;22.72;33.09;99462.36;1677963;83;20971;-52
2021/05/22 11:56:14;;;;;;;0.50;0.20;;;;;;;22.71;32.61;99453.30;1675419;83;20985;-53